createdAt,value
2018-12-19T00:02:04.002Z,23.62
2018-12-19T00:04:34.263Z,24.73
2018-12-19T00:07:04.653Z,25.25
2018-12-19T00:09:33.282Z,22.13
2018-12-19T00:12:01.571Z,24.70
2018-12-19T00:14:29.757Z,23.40
2018-12-19T00:17:00.078Z,23.98
2018-12-19T00:19:28.744Z,21.27
2018-12-19T00:21:56.930Z,27.50
2018-12-19T00:24:26.131Z,22.50
2018-12-19T00:26:56.442Z,18.73
2018-12-19T00:29:26.664Z,25.35
2018-12-19T00:31:56.907Z,23.30
2018-12-19T00:34:32.012Z,23.35
2018-12-19T00:37:00.201Z,24.82
2018-12-19T00:39:28.680Z,22.90
2018-12-19T00:41:57.736Z,21.35
2018-12-19T00:44:26.069Z,25.00
2018-12-19T00:46:54.220Z,24.30
2018-12-19T00:49:22.409Z,22.17
2018-12-19T00:51:50.840Z,21.30
2018-12-19T00:54:19.381Z,20.93
2018-12-19T00:56:47.746Z,24.72
2018-12-19T00:59:16.104Z,22.30
2018-12-19T01:01:44.460Z,20.95
2018-12-19T01:04:12.810Z,23.22
2018-12-19T01:06:41.422Z,23.07
2018-12-19T01:09:15.848Z,26.27
2018-12-19T01:11:43.438Z,22.40
2018-12-19T01:14:11.885Z,27.17
2018-12-19T01:16:40.196Z,25.50
2018-12-19T01:19:09.398Z,23.90
2018-12-19T01:21:37.793Z,22.43
2018-12-19T01:24:05.949Z,21.93
2018-12-19T01:26:34.566Z,24.23
2018-12-19T01:29:03.011Z,21.63
2018-12-19T01:31:31.194Z,21.10
2018-12-19T01:33:59.467Z,23.65
2018-12-19T01:36:27.872Z,28.10
2018-12-19T01:38:56.085Z,22.83
2018-12-19T01:41:24.301Z,23.23
2018-12-19T01:43:52.883Z,20.20
2018-12-19T01:46:21.077Z,24.63
2018-12-19T01:48:49.522Z,23.37
2018-12-19T01:51:18.200Z,20.07
2018-12-19T01:53:46.779Z,22.50
2018-12-19T01:56:15.001Z,21.70
2018-12-19T01:58:43.277Z,22.47
2018-12-19T02:01:11.371Z,21.97
2018-12-19T02:03:39.818Z,19.00
2018-12-19T02:06:08.143Z,24.27
2018-12-19T02:08:36.589Z,23.67
2018-12-19T02:11:04.852Z,23.30
2018-12-19T02:13:33.241Z,19.40
2018-12-19T02:16:02.163Z,25.33
2018-12-19T02:18:30.539Z,21.23
2018-12-19T02:20:58.776Z,28.00
2018-12-19T02:23:27.195Z,21.37
2018-12-19T02:25:55.683Z,21.03
2018-12-19T02:28:24.441Z,20.77
2018-12-19T02:30:52.700Z,27.03
2018-12-19T02:33:21.119Z,24.07
2018-12-19T02:35:49.243Z,23.87
2018-12-19T02:38:17.547Z,22.53
2018-12-19T02:40:46.015Z,20.83
2018-12-19T02:43:14.328Z,20.80
2018-12-19T02:45:42.577Z,18.70
2018-12-19T02:48:11.593Z,22.23
2018-12-19T02:50:40.107Z,19.77
2018-12-19T02:53:08.338Z,23.90
2018-12-19T02:55:36.499Z,21.90
2018-12-19T02:58:06.717Z,26.13
2018-12-19T03:00:35.017Z,22.47
2018-12-19T03:03:03.492Z,19.90
2018-12-19T03:05:31.656Z,21.40
2018-12-19T03:08:00.013Z,18.03
2018-12-19T03:10:28.411Z,20.93
2018-12-19T03:12:56.743Z,23.03
2018-12-19T03:15:25.068Z,22.00
2018-12-19T03:17:53.550Z,20.93
2018-12-19T03:20:21.841Z,22.70
2018-12-19T03:22:50.103Z,19.33
2018-12-19T03:25:18.512Z,21.73
2018-12-19T03:27:46.648Z,20.30
2018-12-19T03:30:15.151Z,22.03
2018-12-19T03:32:44.548Z,23.07
2018-12-19T03:35:12.813Z,27.47
2018-12-19T03:37:41.205Z,22.50
2018-12-19T03:40:09.506Z,23.97
2018-12-19T03:42:37.846Z,21.40
2018-12-19T03:45:06.759Z,22.73
2018-12-19T03:47:35.334Z,18.67
2018-12-19T03:50:03.989Z,21.13
2018-12-19T03:52:32.526Z,18.23
2018-12-19T03:55:00.783Z,24.53
2018-12-19T03:57:29.551Z,20.50
2018-12-19T03:59:57.968Z,23.37
2018-12-19T04:02:26.440Z,21.87
2018-12-19T04:04:54.917Z,21.23
2018-12-19T04:07:23.269Z,29.40
2018-12-19T04:09:57.826Z,23.90
2018-12-19T04:12:22.690Z,25.57
2018-12-19T04:14:50.880Z,21.10
2018-12-19T04:17:19.168Z,22.87
2018-12-19T04:19:47.320Z,21.00
2018-12-19T04:22:17.972Z,21.50
2018-12-19T04:24:46.133Z,27.47
2018-12-19T04:27:14.455Z,21.43
2018-12-19T04:29:43.155Z,24.37
2018-12-19T04:32:12.206Z,24.92
2018-12-19T04:34:40.778Z,22.80
2018-12-19T04:37:09.052Z,24.10
2018-12-19T04:39:37.431Z,26.97
2018-12-19T04:42:05.724Z,24.47
2018-12-19T04:44:34.060Z,22.13
2018-12-19T04:47:02.584Z,21.63
2018-12-19T04:49:31.071Z,20.57
2018-12-19T04:51:59.756Z,27.40
2018-12-19T04:54:28.221Z,24.40
2018-12-19T04:56:56.970Z,21.17
2018-12-19T04:59:25.355Z,22.98
2018-12-19T05:01:53.750Z,23.70
2018-12-19T05:04:22.221Z,19.25
2018-12-19T05:06:50.687Z,18.90
2018-12-19T05:09:18.906Z,25.02
2018-12-19T05:11:47.522Z,22.80
2018-12-19T05:14:16.135Z,20.70
2018-12-19T05:16:44.459Z,20.70
2018-12-19T05:19:13.313Z,20.43
2018-12-19T05:21:41.822Z,22.43
2018-12-19T05:24:10.013Z,21.10
2018-12-19T05:26:39.188Z,19.37
2018-12-19T05:29:07.897Z,23.40
2018-12-19T05:31:36.766Z,21.03
2018-12-19T05:34:05.274Z,18.33
2018-12-19T05:36:33.815Z,18.53
2018-12-19T05:39:02.235Z,17.77
2018-12-19T05:41:32.553Z,20.43
2018-12-19T05:44:00.838Z,19.40
2018-12-19T05:46:29.707Z,19.47
2018-12-19T05:48:57.872Z,19.30
2018-12-19T05:51:26.365Z,15.87
2018-12-19T05:53:54.849Z,22.10
2018-12-19T05:56:23.444Z,17.90
2018-12-19T05:58:51.825Z,16.40
2018-12-19T06:01:20.024Z,16.60
2018-12-19T06:03:50.320Z,17.13
2018-12-19T06:06:18.660Z,15.40
2018-12-19T06:08:46.865Z,19.93
2018-12-19T06:11:15.131Z,19.53
2018-12-19T06:13:43.301Z,15.13
2018-12-19T06:16:11.702Z,19.00
2018-12-19T06:18:40.128Z,24.60
2018-12-19T06:21:08.481Z,25.60
2018-12-19T06:23:36.735Z,22.40
2018-12-19T06:26:05.243Z,24.23
2018-12-19T06:28:35.528Z,22.57
2018-12-19T06:31:03.793Z,23.07
2018-12-19T06:33:32.626Z,21.53
2018-12-19T06:36:01.094Z,25.97
2018-12-19T06:38:29.408Z,20.87
2018-12-19T06:40:57.760Z,35.23
2018-12-19T06:43:26.171Z,21.63
2018-12-19T06:45:54.426Z,18.60
2018-12-19T06:48:22.726Z,17.27
2018-12-19T06:50:51.040Z,22.30
2018-12-19T06:53:19.581Z,21.17
2018-12-19T06:55:47.749Z,23.70
2018-12-19T06:58:16.439Z,19.40
2018-12-19T07:00:44.690Z,19.47
2018-12-19T07:03:13.084Z,18.93
2018-12-19T07:05:41.566Z,19.93
2018-12-19T07:08:09.901Z,21.70
2018-12-19T07:10:39.215Z,18.17
2018-12-19T07:13:07.840Z,25.77
2018-12-19T07:15:36.317Z,21.30
2018-12-19T07:18:04.833Z,19.77
2018-12-19T07:20:33.070Z,23.33
2018-12-19T07:23:01.573Z,21.10
2018-12-19T07:25:29.943Z,20.30
2018-12-19T07:27:58.079Z,19.10
2018-12-19T07:30:26.177Z,22.00
2018-12-19T07:32:55.002Z,34.40
2018-12-19T07:35:23.241Z,20.20
2018-12-19T07:37:51.500Z,19.70
2018-12-19T07:40:19.688Z,33.37
2018-12-19T07:42:47.849Z,18.60
2018-12-19T07:45:16.048Z,16.93
2018-12-19T07:47:44.213Z,22.30
2018-12-19T07:50:12.449Z,21.37
2018-12-19T07:52:41.939Z,18.80
2018-12-19T07:55:10.368Z,19.93
2018-12-19T07:57:38.731Z,19.67
2018-12-19T08:00:07.352Z,22.40
2018-12-19T08:02:35.704Z,23.80
2018-12-19T08:05:04.599Z,24.53
2018-12-19T08:07:32.789Z,24.00
2018-12-19T08:10:01.059Z,29.60
2018-12-19T08:12:29.222Z,24.20
2018-12-19T08:15:02.982Z,26.43
2018-12-19T08:17:31.213Z,23.90
2018-12-19T08:19:59.565Z,21.70
2018-12-19T08:22:27.967Z,18.37
2018-12-19T08:24:56.114Z,24.53
2018-12-19T08:27:24.356Z,22.10
2018-12-19T08:29:52.568Z,20.43
2018-12-19T08:32:20.769Z,22.97
2018-12-19T08:34:49.001Z,26.63
2018-12-19T08:37:17.120Z,19.43
2018-12-19T08:39:45.265Z,24.23
2018-12-19T08:42:13.483Z,20.50
2018-12-19T08:44:41.952Z,22.00
2018-12-19T08:47:10.004Z,20.10
2018-12-19T08:49:38.179Z,23.20
2018-12-19T08:52:06.435Z,21.87
2018-12-19T08:54:35.129Z,21.17
2018-12-19T08:57:03.469Z,25.93
2018-12-19T08:59:32.129Z,23.60
2018-12-19T09:02:00.457Z,20.53
2018-12-19T09:04:28.652Z,15.47
2018-12-19T09:06:56.936Z,22.73
2018-12-19T09:09:25.419Z,22.43
2018-12-19T09:11:54.296Z,18.10
2018-12-19T09:14:22.908Z,22.73
2018-12-19T09:16:51.244Z,17.40
2018-12-19T09:19:19.345Z,17.97
2018-12-19T09:21:47.516Z,14.00
2018-12-19T09:24:15.921Z,14.70
2018-12-19T09:26:44.075Z,15.07
2018-12-19T09:29:12.364Z,15.00
2018-12-19T09:31:45.435Z,17.50
2018-12-19T09:34:14.099Z,21.63
2018-12-19T09:36:42.397Z,15.10
2018-12-19T09:39:10.683Z,15.53
2018-12-19T09:41:38.889Z,12.20
2018-12-19T09:44:08.626Z,16.07
2018-12-19T09:46:37.248Z,18.90
2018-12-19T09:49:12.121Z,15.40
2018-12-19T09:51:35.634Z,17.67
2018-12-19T09:54:03.743Z,19.70
2018-12-19T09:56:31.923Z,19.93
2018-12-19T09:59:00.273Z,18.77
2018-12-19T10:01:28.649Z,21.20
2018-12-19T10:03:58.750Z,19.77
2018-12-19T10:06:27.460Z,16.43
2018-12-19T10:08:55.619Z,16.90
2018-12-19T10:11:23.908Z,19.73
2018-12-19T10:13:55.173Z,20.50
2018-12-19T10:16:23.458Z,18.50
2018-12-19T10:18:51.739Z,19.67
2018-12-19T10:21:20.137Z,17.90
2018-12-19T10:23:48.435Z,19.20
2018-12-19T10:26:19.845Z,15.93
2018-12-19T10:28:48.264Z,17.70
2018-12-19T10:31:16.687Z,16.70
2018-12-19T10:33:44.862Z,20.60
2018-12-19T10:36:13.294Z,22.47
2018-12-19T10:38:41.817Z,19.80
2018-12-19T10:41:10.368Z,20.90
2018-12-19T10:43:38.585Z,27.23
2018-12-19T10:46:07.145Z,16.30
2018-12-19T10:48:35.346Z,28.10
2018-12-19T10:51:04.116Z,15.53
2018-12-19T10:53:33.827Z,17.03
2018-12-19T10:56:02.617Z,17.73
2018-12-19T10:58:30.934Z,18.73
2018-12-19T11:01:00.408Z,19.10
2018-12-19T11:03:28.650Z,17.80
2018-12-19T11:05:57.359Z,29.37
2018-12-19T11:08:25.657Z,15.27
2018-12-19T11:10:54.146Z,18.13
2018-12-19T11:13:22.325Z,15.73
2018-12-19T11:15:50.716Z,13.13
2018-12-19T11:18:19.061Z,18.43
2018-12-19T11:20:47.455Z,12.47
2018-12-19T11:23:15.729Z,14.20
2018-12-19T11:25:44.072Z,11.40
2018-12-19T11:28:12.439Z,13.10
2018-12-19T11:30:40.832Z,12.23
2018-12-19T11:33:09.134Z,13.57
2018-12-19T11:35:37.673Z,9.23
2018-12-19T11:38:06.137Z,8.40
2018-12-19T11:40:34.261Z,10.80
2018-12-19T11:43:03.198Z,8.90
2018-12-19T11:45:31.563Z,10.27
2018-12-19T11:47:59.912Z,8.63
2018-12-19T11:50:28.105Z,7.40
2018-12-19T11:52:57.553Z,12.73
2018-12-19T11:55:25.951Z,10.60
2018-12-19T11:57:54.570Z,18.07
2018-12-19T12:00:22.831Z,11.73
2018-12-19T12:02:51.000Z,12.93
2018-12-19T12:05:19.530Z,13.27
2018-12-19T12:07:49.812Z,15.10
2018-12-19T12:10:18.160Z,20.20
2018-12-19T12:12:46.351Z,22.43
2018-12-19T12:15:14.633Z,16.40
2018-12-19T12:17:43.109Z,15.33
2018-12-19T12:20:11.206Z,18.43
2018-12-19T12:22:41.189Z,13.43
2018-12-19T12:25:09.722Z,18.13
2018-12-19T12:27:38.013Z,16.50
2018-12-19T12:30:06.716Z,19.37
2018-12-19T12:32:35.234Z,20.30
2018-12-19T12:35:04.248Z,15.03
2018-12-19T12:37:32.328Z,21.33
2018-12-19T12:40:00.377Z,14.07
2018-12-19T12:42:28.582Z,20.73
2018-12-19T12:44:56.914Z,15.93
2018-12-19T12:47:25.353Z,14.33
2018-12-19T12:49:53.372Z,13.23
2018-12-19T12:52:21.514Z,13.73
2018-12-19T12:54:49.545Z,14.60
2018-12-19T12:57:17.704Z,9.13
2018-12-19T12:59:45.686Z,8.13
2018-12-19T13:02:13.808Z,15.53
2018-12-19T13:04:41.912Z,10.63
2018-12-19T13:07:10.278Z,8.40
2018-12-19T13:09:38.271Z,10.17
2018-12-19T13:12:06.400Z,10.43
2018-12-19T13:14:34.589Z,6.97
2018-12-19T13:17:03.207Z,12.37
2018-12-19T13:19:31.481Z,9.03
2018-12-19T13:21:59.534Z,9.33
2018-12-19T13:24:27.560Z,12.30
2018-12-19T13:26:56.016Z,12.87
2018-12-19T13:29:24.162Z,11.50
2018-12-19T13:31:52.539Z,7.43
2018-12-19T13:34:20.908Z,6.30
2018-12-19T13:36:48.903Z,10.33
2018-12-19T13:39:16.912Z,12.70
2018-12-19T13:41:44.966Z,9.20
2018-12-19T13:44:13.352Z,6.37
2018-12-19T13:46:48.228Z,9.57
2018-12-19T13:49:16.548Z,9.97
2018-12-19T13:51:44.774Z,4.70
2018-12-19T13:54:12.836Z,11.00
2018-12-19T13:56:40.936Z,9.50
2018-12-19T13:59:09.648Z,8.07
2018-12-19T14:01:37.756Z,7.47
2018-12-19T14:04:05.857Z,9.70
2018-12-19T14:06:34.508Z,5.63
2018-12-19T14:09:04.910Z,6.13
2018-12-19T14:11:34.995Z,6.23
2018-12-19T14:14:03.433Z,8.07
2018-12-19T14:16:31.609Z,8.23
2018-12-19T14:19:01.226Z,18.27
2018-12-19T14:21:29.347Z,7.60
2018-12-19T14:23:57.382Z,7.80
2018-12-19T14:26:25.631Z,9.63
2018-12-19T14:28:53.704Z,9.68
2018-12-19T14:31:21.933Z,6.60
2018-12-19T14:33:50.131Z,14.10
2018-12-19T14:36:18.411Z,7.20
2018-12-19T14:38:46.558Z,8.87
2018-12-19T14:41:14.576Z,6.90
2018-12-19T14:43:42.713Z,6.97
2018-12-19T14:46:11.102Z,7.10
2018-12-19T14:48:39.237Z,5.03
2018-12-19T14:51:07.658Z,6.73
2018-12-19T14:53:35.827Z,15.00
2018-12-19T14:56:04.464Z,6.77
2018-12-19T14:58:32.692Z,9.17
2018-12-19T15:01:00.824Z,8.63
2018-12-19T15:03:29.090Z,17.40
2018-12-19T15:05:57.227Z,11.00
2018-12-19T15:08:25.512Z,7.13
2018-12-19T15:10:53.622Z,11.73
2018-12-19T15:13:21.687Z,8.23
2018-12-19T15:15:55.387Z,8.63
2018-12-19T15:18:24.218Z,10.03
2018-12-19T15:20:52.301Z,11.97
2018-12-19T15:23:20.510Z,8.17
2018-12-19T15:25:48.634Z,13.20
2018-12-19T15:28:16.850Z,11.00
2018-12-19T15:30:45.169Z,12.37
2018-12-19T15:33:13.596Z,11.13
2018-12-19T15:35:41.798Z,9.00
2018-12-19T15:38:10.353Z,11.33
2018-12-19T15:40:38.298Z,12.57
2018-12-19T15:43:06.470Z,11.20
2018-12-19T15:45:34.508Z,11.50
2018-12-19T15:48:02.775Z,13.03
2018-12-19T15:50:32.282Z,15.60
2018-12-19T15:53:00.542Z,17.87
2018-12-19T15:55:35.642Z,13.90
2018-12-19T15:58:03.958Z,15.37
2018-12-19T16:00:32.294Z,19.97
2018-12-19T16:03:00.328Z,14.47
2018-12-19T16:05:30.578Z,15.10
2018-12-19T16:07:58.683Z,16.50
2018-12-19T16:10:26.956Z,18.00
2018-12-19T16:12:54.952Z,19.90
2018-12-19T16:15:24.343Z,16.00
2018-12-19T16:17:52.562Z,19.03
2018-12-19T16:20:20.592Z,10.37
2018-12-19T16:22:49.115Z,12.80
2018-12-19T16:25:17.475Z,16.83
2018-12-19T16:27:45.942Z,26.13
2018-12-19T16:30:14.655Z,24.57
2018-12-19T16:32:43.513Z,18.60
2018-12-19T16:35:12.906Z,12.07
2018-12-19T16:37:41.310Z,11.53
2018-12-19T16:40:09.655Z,11.90
2018-12-19T16:42:38.251Z,15.80
2018-12-19T16:45:07.628Z,12.57
2018-12-19T16:47:36.138Z,12.23
2018-12-19T16:50:06.175Z,12.00
2018-12-19T16:52:34.525Z,10.20
2018-12-19T16:55:02.980Z,15.47
2018-12-19T16:57:32.726Z,14.77
2018-12-19T17:00:01.110Z,18.23
2018-12-19T17:02:30.791Z,14.47
2018-12-19T17:04:59.218Z,20.37
2018-12-19T17:07:27.709Z,15.03
2018-12-19T17:09:56.392Z,20.60
2018-12-19T17:12:25.257Z,28.33
2018-12-19T17:14:53.463Z,20.47
2018-12-19T17:17:22.289Z,23.93
2018-12-19T17:19:51.753Z,25.93
2018-12-19T17:22:20.029Z,14.70
2018-12-19T17:24:48.350Z,21.37
2018-12-19T17:27:16.480Z,23.27
2018-12-19T17:29:44.424Z,23.60
2018-12-19T17:32:13.044Z,22.50
2018-12-19T17:34:41.174Z,23.00
2018-12-19T17:37:15.758Z,16.60
2018-12-19T17:39:43.736Z,18.40
2018-12-19T17:42:27.545Z,23.67
2018-12-19T17:44:55.719Z,23.80
2018-12-19T17:47:23.924Z,19.83
2018-12-19T17:49:52.007Z,18.67
2018-12-19T17:52:20.108Z,16.43
2018-12-19T17:54:48.117Z,17.83
2018-12-19T17:57:16.164Z,17.70
2018-12-19T17:59:45.412Z,17.23
2018-12-19T18:02:14.600Z,12.80
2018-12-19T18:04:42.668Z,13.47
2018-12-19T18:07:10.835Z,16.47
2018-12-19T18:09:38.968Z,18.17
2018-12-19T18:12:06.937Z,22.20
2018-12-19T18:14:35.057Z,17.27
2018-12-19T18:17:03.126Z,19.37
2018-12-19T18:19:31.386Z,21.23
2018-12-19T18:21:59.962Z,19.80
2018-12-19T18:24:33.673Z,15.80
2018-12-19T18:27:01.976Z,17.73
2018-12-19T18:29:30.354Z,17.63
2018-12-19T18:31:58.546Z,18.97
2018-12-19T18:34:26.898Z,16.00
2018-12-19T18:36:55.275Z,17.37
2018-12-19T18:39:26.217Z,18.70
2018-12-19T18:41:53.695Z,22.00
2018-12-19T18:44:22.036Z,24.50
2018-12-19T18:46:50.323Z,16.50
2018-12-19T18:49:18.541Z,20.67
2018-12-19T18:51:47.022Z,23.50
2018-12-19T18:54:15.388Z,17.40
2018-12-19T18:56:43.673Z,26.50
2018-12-19T18:59:11.936Z,21.00
2018-12-19T19:01:40.353Z,19.17
2018-12-19T19:04:08.691Z,19.73
2018-12-19T19:06:37.376Z,21.37
2018-12-19T19:09:05.879Z,22.47
2018-12-19T19:11:36.276Z,28.30
2018-12-19T19:14:04.852Z,25.93
2018-12-19T19:16:33.311Z,20.27
2018-12-19T19:19:01.517Z,21.90
2018-12-19T19:21:30.560Z,25.17
2018-12-19T19:23:58.960Z,18.83
2018-12-19T19:26:27.640Z,11.73
2018-12-19T19:28:56.162Z,11.33
2018-12-19T19:31:25.460Z,13.17
2018-12-19T19:33:54.150Z,12.90
2018-12-19T19:36:22.516Z,9.33
2018-12-19T19:38:50.945Z,12.33
2018-12-19T19:41:19.304Z,10.90
2018-12-19T19:43:47.459Z,8.50
2018-12-19T19:46:16.283Z,12.60
2018-12-19T19:48:44.473Z,8.23
2018-12-19T19:51:17.004Z,16.00
2018-12-19T19:53:43.148Z,11.27
2018-12-19T19:56:11.349Z,11.10
2018-12-19T19:58:39.869Z,12.93
2018-12-19T20:01:08.707Z,12.10
2018-12-19T20:03:37.291Z,17.27
2018-12-19T20:06:05.689Z,8.13
2018-12-19T20:08:34.089Z,10.63
2018-12-19T20:11:02.514Z,9.67
2018-12-19T20:13:33.460Z,8.37
2018-12-19T20:16:01.505Z,6.90
2018-12-19T20:18:29.913Z,8.43
2018-12-19T20:20:58.238Z,7.37
2018-12-19T20:23:26.749Z,10.80
2018-12-19T20:25:54.981Z,11.37
2018-12-19T20:28:24.457Z,15.23
2018-12-19T20:30:52.820Z,12.70
2018-12-19T20:33:21.289Z,6.50
2018-12-19T20:35:49.673Z,7.50
2018-12-19T20:38:18.989Z,6.73
2018-12-19T20:40:47.209Z,8.40
2018-12-19T20:43:15.822Z,11.30
2018-12-19T20:45:44.257Z,15.47
2018-12-19T20:48:12.848Z,16.30
2018-12-19T20:50:41.097Z,14.50
2018-12-19T20:53:09.722Z,5.30
2018-12-19T20:55:37.927Z,4.93
2018-12-19T20:58:06.275Z,3.47
2018-12-19T21:00:34.970Z,6.73
2018-12-19T21:03:03.610Z,5.83
2018-12-19T21:05:32.005Z,3.80
2018-12-19T21:08:00.495Z,8.00
2018-12-19T21:10:29.117Z,4.70
2018-12-19T21:12:57.549Z,4.93
2018-12-19T21:15:25.724Z,5.43
2018-12-19T21:17:59.635Z,3.47
2018-12-19T21:20:28.273Z,6.50
2018-12-19T21:22:56.859Z,4.70
2018-12-19T21:25:25.191Z,3.20
2018-12-19T21:27:53.636Z,2.30
2018-12-19T21:30:23.376Z,4.83
2018-12-19T21:32:51.728Z,2.97
2018-12-19T21:35:20.306Z,3.40
2018-12-19T21:37:48.954Z,4.40
2018-12-19T21:40:17.271Z,3.70
2018-12-19T21:42:45.700Z,6.13
2018-12-19T21:45:14.062Z,6.30
2018-12-19T21:47:42.348Z,1.80
2018-12-19T21:50:11.039Z,24.50
2018-12-19T21:52:39.633Z,17.13
2018-12-19T21:55:08.180Z,3.13
2018-12-19T21:57:37.031Z,5.67
2018-12-19T22:00:08.522Z,2.30
2018-12-19T22:02:38.892Z,2.03
2018-12-19T22:05:07.476Z,2.03
2018-12-19T22:07:36.209Z,2.40
2018-12-19T22:10:05.198Z,2.30
2018-12-19T22:12:33.532Z,2.47
2018-12-19T22:15:03.149Z,1.50
2018-12-19T22:17:37.025Z,2.43
2018-12-19T22:20:06.215Z,1.70
2018-12-19T22:22:35.450Z,2.50
2018-12-19T22:25:04.249Z,1.40
2018-12-19T22:27:32.520Z,1.97
2018-12-19T22:30:01.310Z,2.30
2018-12-19T22:32:30.158Z,5.13
2018-12-19T22:34:58.735Z,4.97
2018-12-19T22:37:27.144Z,2.70
2018-12-19T22:39:55.540Z,3.30
2018-12-19T22:42:23.854Z,3.53
2018-12-19T22:44:52.270Z,3.60
2018-12-19T22:47:21.743Z,3.93
2018-12-19T22:49:50.478Z,4.37
2018-12-19T22:52:18.862Z,5.80
2018-12-19T22:54:47.466Z,6.70
2018-12-19T22:57:16.460Z,5.20
2018-12-19T22:59:44.984Z,9.57
2018-12-19T23:03:21.931Z,6.03
2018-12-19T23:05:50.607Z,11.50
2018-12-19T23:08:19.486Z,6.53
2018-12-19T23:10:48.178Z,10.57
2018-12-19T23:13:16.664Z,7.27
2018-12-19T23:15:47.291Z,6.40
2018-12-19T23:18:27.151Z,9.23
2018-12-19T23:21:01.665Z,12.60
2018-12-19T23:23:36.034Z,9.60
2018-12-19T23:26:07.090Z,9.73
2018-12-19T23:28:38.010Z,8.57
2018-12-19T23:31:06.640Z,16.33
2018-12-19T23:33:35.149Z,6.53
2018-12-19T23:36:03.697Z,6.03
2018-12-19T23:38:31.944Z,6.30
2018-12-19T23:41:00.311Z,5.07
2018-12-19T23:43:29.027Z,7.50
2018-12-19T23:45:57.440Z,7.20
2018-12-19T23:48:25.628Z,11.07
2018-12-19T23:50:54.246Z,9.30
2018-12-19T23:53:23.077Z,7.93
2018-12-19T23:55:51.526Z,9.60
2018-12-19T23:58:19.834Z,10.20
